Time;durP1;ratioP1;P1;durP2;ratioP2;P2;SDS_P1;SDS_P2;PMS_P1;PMS_P2;Temp;Humidity;BMP_temperature;BMP_pressure;BME280_temperature;BME280_humidity;BME280_pressure;Samples;Min_cycle;Max_cycle;Signal;HPM_P1;HPM_P2
2022/05/25 00:00:18;;;;;;;0.80;0.70;;;;;;;19.48;45.24;101026.75;5033654;28;20116;-67
2022/05/25 00:02:44;;;;;;;3.88;0.90;;;;;;;19.46;44.96;101029.63;5033343;28;20418;-68
2022/05/25 00:05:11;;;;;;;1.30;1.20;;;;;;;19.46;45.01;101028.78;5031632;28;20022;-67
2022/05/25 00:07:36;;;;;;;3.65;1.17;;;;;;;19.46;44.91;101028.78;5033476;28;20151;-67
2022/05/25 00:10:02;;;;;;;3.83;1.23;;;;;;;19.45;44.84;101027.09;5033487;28;20051;-68
2022/05/25 00:12:28;;;;;;;0.85;0.85;;;;;;;19.45;44.81;101027.97;5032113;28;20026;-67
2022/05/25 00:14:53;;;;;;;7.07;0.95;;;;;;;19.48;45.17;101037.63;5032337;28;20364;-67
2022/05/25 00:17:18;;;;;;;5.40;0.88;;;;;;;19.51;45.09;101029.09;5033313;28;20360;-68
2022/05/25 00:19:59;;;;;;;2.97;1.30;;;;;;;19.52;44.62;101033.50;5033689;28;20029;-67
2022/05/25 00:22:45;;;;;;;5.72;1.45;;;;;;;19.54;44.95;101037.72;5032366;28;20057;-67
2022/05/25 00:25:14;;;;;;;3.55;1.35;;;;;;;19.56;45.31;101040.28;5032400;28;20052;-67
2022/05/25 00:27:39;;;;;;;3.45;1.13;;;;;;;19.60;44.94;101041.56;5033450;28;20391;-68
2022/05/25 00:30:05;;;;;;;4.05;0.95;;;;;;;19.59;44.78;101034.47;5032224;28;20021;-67
2022/05/25 00:32:31;;;;;;;1.67;0.80;;;;;;;19.67;45.13;101048.00;5032447;28;20026;-67
2022/05/25 00:34:56;;;;;;;2.00;1.02;;;;;;;19.69;44.86;101045.94;5033331;28;20078;-67
2022/05/25 00:37:21;;;;;;;2.58;1.27;;;;;;;19.74;44.91;101047.06;5033346;28;20119;-68
2022/05/25 00:39:47;;;;;;;2.15;1.02;;;;;;;19.77;45.07;101048.56;5032197;28;20172;-67
2022/05/25 00:42:12;;;;;;;2.47;1.48;;;;;;;19.81;45.48;101039.03;5033273;28;20129;-67
2022/05/25 00:44:37;;;;;;;4.50;1.38;;;;;;;19.81;44.92;101055.34;5033189;28;20037;-67
2022/05/25 00:47:03;;;;;;;9.63;0.98;;;;;;;19.83;45.09;101056.00;5033268;28;20029;-67
2022/05/25 00:49:31;;;;;;;4.50;1.25;;;;;;;19.81;45.05;101044.47;5032015;28;20099;-67
2022/05/25 00:52:02;;;;;;;3.92;1.30;;;;;;;19.84;45.18;101054.97;5033103;28;20022;-67
2022/05/25 00:54:29;;;;;;;4.80;1.40;;;;;;;19.86;44.99;101057.50;5032072;28;20503;-68
2022/05/25 00:56:56;;;;;;;5.00;1.20;;;;;;;19.87;44.88;101054.63;5032901;28;20021;-68
2022/05/25 00:59:26;;;;;;;3.78;1.35;;;;;;;19.87;45.11;101060.06;5033044;28;20029;-68
2022/05/25 01:01:51;;;;;;;4.70;1.58;;;;;;;19.87;45.34;101059.19;5031634;28;20040;-66
2022/05/25 01:04:17;;;;;;;3.53;1.38;;;;;;;19.86;45.05;101052.06;5031958;28;20029;-66
2022/05/25 01:06:52;;;;;;;3.83;1.65;;;;;;;19.86;45.17;101069.22;5031804;28;20438;-67
2022/05/25 01:09:42;;;;;;;4.75;1.30;;;;;;;19.85;45.42;101067.53;5032840;28;20045;-67
2022/05/25 01:12:10;;;;;;;3.40;1.42;;;;;;;19.82;44.97;101070.59;5031698;28;20025;-67
2022/05/25 01:14:44;;;;;;;2.67;1.73;;;;;;;19.78;45.21;101066.59;5032820;28;20026;-67
2022/05/25 01:17:26;;;;;;;1.90;1.45;;;;;;;19.76;45.11;101068.66;5034685;28;20514;-66
2022/05/25 01:20:00;;;;;;;4.07;1.10;;;;;;;19.73;45.11;101069.00;5035757;28;20372;-67
2022/05/25 01:22:49;;;;;;;3.40;1.25;;;;;;;19.71;45.07;101071.91;5036622;28;20017;-67
2022/05/25 01:25:37;;;;;;;3.47;1.40;;;;;;;19.70;45.27;101072.94;5035267;28;20028;-67
2022/05/25 01:28:19;;;;;;;2.95;1.58;;;;;;;19.69;45.12;101078.53;5036447;28;20060;-67
2022/05/25 01:30:46;;;;;;;2.80;1.43;;;;;;;19.63;45.07;101073.84;5035526;28;20471;-67
2022/05/25 01:33:20;;;;;;;3.00;1.73;;;;;;;19.62;44.96;101083.03;5035166;28;20021;-68
2022/05/25 01:35:53;;;;;;;3.75;1.63;;;;;;;19.60;45.37;101079.63;5035008;28;20025;-67
2022/05/25 01:38:21;;;;;;;3.20;1.40;;;;;;;19.61;45.28;101086.75;5035323;28;20430;-67
2022/05/25 01:41:02;;;;;;;4.28;2.05;;;;;;;19.60;45.20;101087.78;5035130;28;20025;-67
2022/05/25 01:43:34;;;;;;;3.35;1.70;;;;;;;19.59;45.17;101088.81;5034889;28;20390;-67
2022/05/25 01:46:03;;;;;;;;;;;;;;;19.58;45.15;101087.97;5036475;28;20387;-68
2022/05/25 01:48:29;;;;;;;3.17;1.55;;;;;;;19.57;45.28;101093.59;5035040;28;19916;-67
2022/05/25 01:51:01;;;;;;;3.25;1.75;;;;;;;19.56;45.06;101090.03;5036041;28;20033;-66
2022/05/25 01:53:29;;;;;;;3.07;1.57;;;;;;;19.54;44.93;101092.06;5034764;28;20022;-67
2022/05/25 01:55:58;;;;;;;4.63;2.28;;;;;;;19.53;45.12;101100.41;5034864;28;20490;-68
2022/05/25 01:58:24;;;;;;;4.43;2.08;;;;;;;19.52;45.03;101099.56;5034756;28;20506;-67
2022/05/25 02:00:58;;;;;;;4.97;1.80;;;;;;;19.50;45.20;101100.78;5034744;28;20511;-67
2022/05/25 02:06:16;;;;;;;4.93;2.05;;;;;;;19.44;45.13;101099.63;5035715;28;20040;-67
2022/05/25 02:09:05;;;;;;;7.22;2.65;;;;;;;19.43;45.09;101099.81;5035791;28;20403;-67
2022/05/25 02:11:43;;;;;;;5.68;1.63;;;;;;;19.42;45.33;101103.53;5035514;28;20025;-67
2022/05/25 02:14:26;;;;;;;7.22;1.80;;;;;;;19.42;45.48;101103.53;5034524;28;20037;-68
2022/05/25 02:16:56;;;;;;;5.82;1.92;;;;;;;19.42;45.00;101100.84;5035519;28;20510;-67
2022/05/25 02:19:25;;;;;;;6.18;1.88;;;;;;;19.40;45.12;101108.31;5035519;28;20450;-67
2022/05/25 02:22:05;;;;;;;4.78;1.88;;;;;;;19.40;45.30;101108.31;5034146;28;20021;-68
2022/05/25 02:24:40;;;;;;;3.90;2.28;;;;;;;19.40;45.60;101108.31;5034263;28;20025;-67
2022/05/25 02:27:10;;;;;;;6.88;3.40;;;;;;;19.37;45.07;101114.94;5034123;28;20057;-67
2022/05/25 02:29:38;;;;;;;5.07;2.38;;;;;;;19.36;45.47;101109.66;5034627;28;20535;-67
2022/05/25 02:32:09;;;;;;;4.95;2.05;;;;;;;19.35;45.15;101116.97;5033812;28;20075;-68
2022/05/25 02:34:36;;;;;;;5.15;1.80;;;;;;;19.34;45.36;101122.59;5035343;28;20105;-67
2022/05/25 02:37:02;;;;;;;3.97;2.10;;;;;;;19.32;44.87;101119.22;5034040;28;20022;-68
2022/05/25 02:39:28;;;;;;;2.70;1.83;;;;;;;19.31;45.16;101117.50;5033990;28;20074;-67
2022/05/25 02:41:55;;;;;;;4.57;2.45;;;;;;;19.29;45.65;101114.94;5035367;28;20029;-66
2022/05/25 02:44:21;;;;;;;3.22;1.90;;;;;;;19.27;45.78;101121.59;5034993;28;20032;-68
2022/05/25 02:46:47;;;;;;;5.97;1.98;;;;;;;19.26;45.34;101119.91;5033962;28;20025;-67
2022/05/25 02:49:12;;;;;;;4.35;1.95;;;;;;;19.24;45.21;101124.66;5033844;28;20107;-68
2022/05/25 02:51:38;;;;;;;2.58;1.75;;;;;;;19.22;45.52;101121.28;5016867;28;20059;-66
2022/05/25 02:54:05;;;;;;;4.10;1.77;;;;;;;19.19;45.30;101131.50;5034887;28;20025;-68
2022/05/25 02:56:30;;;;;;;2.55;1.40;;;;;;;19.16;45.54;101137.28;5033665;28;20072;-68
2022/05/25 02:58:55;;;;;;;4.90;1.98;;;;;;;19.12;45.29;101133.22;5034682;28;20032;-67
2022/05/25 03:01:21;;;;;;;3.08;1.98;;;;;;;19.10;45.54;101132.53;5035066;28;20032;-67
2022/05/25 03:03:46;;;;;;;3.53;1.40;;;;;;;19.07;45.74;101138.31;5034578;28;20044;-67
2022/05/25 03:06:12;;;;;;;5.38;1.80;;;;;;;19.06;44.86;101136.66;5034602;28;20021;-68
2022/05/25 03:08:38;;;;;;;2.72;1.38;;;;;;;19.05;44.92;101145.81;5033300;28;20033;-67
2022/05/25 03:11:04;;;;;;;3.83;1.40;;;;;;;19.04;44.94;101144.09;5033296;28;20124;-67
2022/05/25 03:13:30;;;;;;;3.40;1.65;;;;;;;19.00;45.20;101150.94;5033278;28;20018;-66
2022/05/25 03:16:00;;;;;;;3.53;1.55;;;;;;;18.96;45.79;101151.44;5034569;28;20021;-67
2022/05/25 03:18:25;;;;;;;4.05;1.80;;;;;;;18.95;44.68;101158.75;5033394;28;20395;-67
2022/05/25 03:20:50;;;;;;;4.28;1.58;;;;;;;18.94;45.38;101153.50;5033165;28;20029;-68
2022/05/25 03:23:19;;;;;;;2.70;1.70;;;;;;;18.93;45.22;101154.50;5033001;28;20029;-68
2022/05/25 03:25:46;;;;;;;2.92;1.73;;;;;;;18.91;45.97;101159.28;5034141;28;20534;-68
2022/05/25 03:28:11;;;;;;;4.40;1.60;;;;;;;18.90;44.76;101157.59;5034256;28;20475;-67
2022/05/25 03:30:37;;;;;;;4.60;1.80;;;;;;;18.85;45.47;101158.09;5033937;28;20025;-67
2022/05/25 03:33:02;;;;;;;3.88;1.92;;;;;;;18.84;44.96;101153.72;5033972;28;20025;-66
2022/05/25 03:35:28;;;;;;;4.35;2.10;;;;;;;18.83;45.62;101162.88;5034084;28;20104;-68
2022/05/25 03:37:53;;;;;;;2.83;1.40;;;;;;;18.80;45.34;101168.63;5033932;28;20402;-67
2022/05/25 03:40:19;;;;;;;5.70;2.15;;;;;;;18.78;45.51;101159.84;5033953;28;20036;-68
2022/05/25 03:42:45;;;;;;;5.65;1.92;;;;;;;18.78;45.40;101173.41;5016447;28;20060;-67
2022/05/25 03:45:12;;;;;;;7.65;2.58;;;;;;;18.77;45.25;101166.28;5032589;28;20029;-67
2022/05/25 03:47:38;;;;;;;5.90;2.40;;;;;;;18.74;44.94;101169.31;5034127;28;20021;-67
2022/05/25 03:50:03;;;;;;;3.20;2.10;;;;;;;18.77;45.36;101174.41;5034189;28;20101;-67
2022/05/25 03:52:29;;;;;;;5.90;2.38;;;;;;;18.76;45.97;101172.72;5034008;28;20028;-68
2022/05/25 03:54:54;;;;;;;5.20;2.60;;;;;;;18.74;45.47;101180.19;5033814;28;20394;-67
2022/05/25 03:57:19;;;;;;;4.18;2.38;;;;;;;18.75;45.91;101179.19;5032314;28;20443;-67
2022/05/25 03:59:45;;;;;;;5.80;2.42;;;;;;;18.74;45.74;101180.19;5016316;28;20021;-66
2022/05/25 04:02:11;;;;;;;6.05;3.30;;;;;;;18.75;46.11;101176.47;5033655;28;20055;-66
2022/05/25 04:04:36;;;;;;;5.75;2.67;;;;;;;18.74;45.97;101184.75;5032393;28;20471;-67
2022/05/25 04:07:02;;;;;;;7.38;2.75;;;;;;;18.76;46.08;101186.28;5015856;28;20489;-67
2022/05/25 04:09:27;;;;;;;6.40;2.80;;;;;;;18.79;45.50;101191.38;5033546;28;20025;-67
2022/05/25 04:11:53;;;;;;;7.40;2.78;;;;;;;18.81;45.21;101191.22;5032417;28;20083;-67
2022/05/25 04:14:18;;;;;;;9.00;3.08;;;;;;;18.82;45.49;101193.75;5033507;28;20025;-67
2022/05/25 04:16:44;;;;;;;8.82;3.80;;;;;;;18.85;45.77;101198.81;5033548;28;20026;-66
2022/05/25 04:19:10;;;;;;;6.20;2.53;;;;;;;18.88;45.09;101203.91;5033395;28;20587;-68
2022/05/25 04:21:35;;;;;;;5.72;2.58;;;;;;;18.90;45.35;101199.13;5033455;28;20033;-67
2022/05/25 04:24:01;;;;;;;6.68;3.28;;;;;;;18.95;45.51;101204.91;5033394;28;20021;-67
2022/05/25 04:26:28;;;;;;;7.18;3.40;;;;;;;18.98;45.36;101199.09;5032259;28;20105;-67
2022/05/25 04:28:53;;;;;;;5.65;2.58;;;;;;;19.04;45.19;101201.13;5032124;28;20108;-67
2022/05/25 04:31:19;;;;;;;7.47;2.95;;;;;;;19.07;45.49;101189.94;5032398;28;20086;-67
2022/05/25 04:33:44;;;;;;;10.65;3.20;;;;;;;19.13;45.11;101208.25;5033300;28;20025;-68
2022/05/25 04:36:10;;;;;;;9.55;2.83;;;;;;;19.18;45.48;101204.97;5032265;28;20032;-68
2022/05/25 04:38:36;;;;;;;6.20;2.58;;;;;;;19.21;44.40;101198.38;5033303;28;20026;-67
2022/05/25 04:41:02;;;;;;;6.05;3.15;;;;;;;19.27;44.75;101194.94;5033146;28;20518;-67
2022/05/25 04:43:27;;;;;;;5.75;2.90;;;;;;;19.35;44.72;101195.75;5033271;28;20057;-67
2022/05/25 04:45:53;;;;;;;6.72;3.10;;;;;;;19.41;45.24;101199.66;5033400;28;20061;-67
2022/05/25 04:48:21;;;;;;;6.47;2.45;;;;;;;19.50;44.88;101198.59;5032929;28;20446;-67
2022/05/25 04:50:47;;;;;;;4.70;1.95;;;;;;;19.58;45.09;101201.28;5033286;28;20033;-67
2022/05/25 04:53:15;;;;;;;3.97;1.77;;;;;;;19.68;44.57;101207.34;5036982;28;20092;-67
2022/05/25 04:58:34;;;;;;;4.80;2.13;;;;;;;19.89;44.57;101215.69;5036947;28;20139;-67
2022/05/25 05:01:00;;;;;;;6.47;1.85;;;;;;;19.95;44.71;101209.53;5037042;28;20018;-67
2022/05/25 05:03:27;;;;;;;8.60;2.55;;;;;;;20.04;44.83;101230.22;5036836;28;20061;-67
2022/05/25 05:05:53;;;;;;;3.38;1.83;;;;;;;20.09;44.18;101226.94;5035748;28;20041;-67
2022/05/25 05:08:19;;;;;;;5.13;1.95;;;;;;;20.16;44.06;101225.19;5036879;28;20022;-67
2022/05/25 05:10:44;;;;;;;5.95;1.50;;;;;;;20.24;44.75;101231.44;5035590;28;20476;-66
2022/05/25 05:13:11;;;;;;;9.65;2.72;;;;;;;20.36;43.94;101234.59;5035588;28;20076;-67
2022/05/25 05:15:42;;;;;;;3.75;1.48;;;;;;;20.47;44.07;101230.56;5036968;28;20029;-67
2022/05/25 05:18:07;;;;;;;3.97;1.90;;;;;;;20.56;44.18;101224.03;5035429;28;20113;-67
2022/05/25 05:20:33;;;;;;;8.88;2.15;;;;;;;20.67;44.59;101232.59;5036605;28;20053;-66
2022/05/25 05:22:58;;;;;;;2.92;2.08;;;;;;;20.76;44.47;101236.09;5034476;28;20095;-66
2022/05/25 05:25:24;;;;;;;3.45;1.65;;;;;;;20.85;43.70;101241.25;5035416;28;20532;-67
2022/05/25 05:27:49;;;;;;;6.10;1.95;;;;;;;20.96;43.96;101230.97;5035037;28;20429;-67
2022/05/25 05:30:18;;;;;;;4.38;1.45;;;;;;;21.07;43.67;101225.94;5035120;28;20489;-66
2022/05/25 05:32:44;;;;;;;11.30;1.75;;;;;;;21.18;43.40;101241.81;5036180;28;20510;-67
2022/05/25 05:35:09;;;;;;;3.40;1.90;;;;;;;21.31;43.41;101230.22;5036301;28;20051;-66
2022/05/25 05:37:54;;;;;;;4.22;1.70;;;;;;;21.42;43.47;101235.19;5035168;28;20049;-67
2022/05/25 05:40:20;;;;;;;2.35;1.50;;;;;;;21.55;43.35;101232.66;5035029;28;20040;-66
2022/05/25 05:42:48;;;;;;;4.40;1.50;;;;;;;21.69;43.48;101239.13;5036206;28;20530;-66
2022/05/25 05:45:19;;;;;;;4.03;1.45;;;;;;;21.84;42.81;101238.03;5035210;28;20055;-66
2022/05/25 05:47:54;;;;;;;6.47;2.45;;;;;;;22.00;43.13;101232.38;5035130;28;20022;-66
2022/05/25 05:50:21;;;;;;;2.72;1.80;;;;;;;22.18;42.64;101237.41;5035108;28;20095;-67
2022/05/25 05:52:48;;;;;;;7.13;1.33;;;;;;;22.32;41.80;101231.03;5017997;28;20018;-66
2022/05/25 05:55:13;;;;;;;4.55;1.92;;;;;;;22.44;42.43;101228.63;5018346;28;20053;-66
2022/05/25 05:57:39;;;;;;;3.42;1.33;;;;;;;22.56;42.05;101235.22;5035792;28;20030;-67
2022/05/25 06:00:06;;;;;;;3.83;1.40;;;;;;;22.72;41.33;101237.72;5035966;28;20032;-66
2022/05/25 06:02:31;;;;;;;2.67;1.58;;;;;;;22.84;42.14;101230.63;5034939;28;20104;-67
2022/05/25 06:04:57;;;;;;;4.18;1.17;;;;;;;22.98;41.95;101245.22;5035188;28;20026;-66
2022/05/25 06:07:22;;;;;;;5.95;1.63;;;;;;;23.11;40.79;101239.88;5034521;28;20556;-66
2022/05/25 06:09:47;;;;;;;6.13;1.20;;;;;;;23.25;40.55;101230.72;5035859;28;20502;-66
2022/05/25 06:12:14;;;;;;;2.45;1.38;;;;;;;23.37;41.36;101234.53;5035886;28;20438;-66
2022/05/25 06:14:40;;;;;;;1.95;0.95;;;;;;;23.48;41.05;101234.00;5035678;28;20036;-66
2022/05/25 06:19:49;;;;;;;2.38;0.90;;;;;;;23.71;40.98;101245.47;5035603;28;20087;-66
2022/05/25 06:22:15;;;;;;;2.53;1.23;;;;;;;23.78;40.30;101235.38;5035587;28;20017;-66
2022/05/25 06:24:47;;;;;;;5.20;1.35;;;;;;;23.91;40.45;101239.22;5035528;28;20017;-66
2022/05/25 06:27:12;;;;;;;6.97;0.98;;;;;;;24.01;39.83;101243.22;5035542;28;20026;-66
2022/05/25 06:29:40;;;;;;;6.63;1.45;;;;;;;24.14;39.63;101245.22;5035272;28;20155;-66
2022/05/25 06:32:07;;;;;;;4.10;1.42;;;;;;;24.25;39.34;101247.34;5033856;28;20021;-66
2022/05/25 06:34:33;;;;;;;2.95;0.88;;;;;;;24.36;38.96;101243.97;5035210;28;20030;-66
2022/05/25 06:36:58;;;;;;;3.25;1.27;;;;;;;24.48;39.48;101255.16;5035213;28;20032;-66
2022/05/25 06:39:24;;;;;;;2.20;1.35;;;;;;;24.61;38.98;101253.28;5035282;28;20430;-66
2022/05/25 06:41:49;;;;;;;5.55;0.98;;;;;;;24.75;39.00;101260.44;5035110;28;20079;-66
2022/05/25 06:44:17;;;;;;;3.13;0.90;;;;;;;24.93;38.41;101257.06;5033829;28;20026;-66
2022/05/25 06:46:42;;;;;;;1.90;0.80;;;;;;;25.08;38.40;101262.31;5035127;28;20100;-66
2022/05/25 06:49:08;;;;;;;3.22;1.17;;;;;;;25.27;38.38;101264.19;5033747;28;20075;-66
2022/05/25 06:51:34;;;;;;;1.52;1.10;;;;;;;25.45;38.16;101261.63;5033755;28;20515;-65
2022/05/25 06:54:00;;;;;;;3.15;0.98;;;;;;;25.59;37.85;101262.44;5034976;28;20021;-65
2022/05/25 06:56:25;;;;;;;0.95;0.80;;;;;;;25.73;37.53;101270.41;5034816;28;20060;-66
2022/05/25 06:58:55;;;;;;;2.45;1.02;;;;;;;25.83;36.92;101262.53;5035030;28;20028;-66
2022/05/25 07:01:22;;;;;;;3.45;0.88;;;;;;;25.94;37.37;101259.13;5035057;28;20026;-65
2022/05/25 07:03:48;;;;;;;0.98;0.75;;;;;;;26.05;37.37;101263.91;5034497;28;20053;-66
2022/05/25 07:06:15;;;;;;;2.38;0.95;;;;;;;26.16;36.49;101273.38;5034544;28;20028;-66
2022/05/25 07:08:40;;;;;;;2.55;1.27;;;;;;;26.28;37.07;101274.38;5034532;28;20033;-67
2022/05/25 07:11:05;;;;;;;1.27;0.75;;;;;;;26.40;36.73;101278.09;5034506;28;20021;-66
2022/05/25 07:13:31;;;;;;;1.42;0.47;;;;;;;26.56;36.45;101272.06;5033198;28;20364;-66
2022/05/25 07:15:58;;;;;;;2.85;0.80;;;;;;;26.68;36.21;101277.69;5032819;28;20542;-66
2022/05/25 07:18:25;;;;;;;4.40;0.70;;;;;;;26.77;36.37;101273.59;5034281;28;20109;-66
2022/05/25 07:20:50;;;;;;;2.30;0.73;;;;;;;26.89;35.75;101271.81;5034659;28;20022;-65
2022/05/25 07:23:15;;;;;;;5.45;0.68;;;;;;;26.96;35.35;101275.38;5034214;28;20083;-66
2022/05/25 07:25:41;;;;;;;2.03;0.43;;;;;;;27.06;35.92;101272.91;5034393;28;20025;-65
2022/05/25 07:28:06;;;;;;;1.92;0.73;;;;;;;27.15;35.55;101276.22;5034213;28;20391;-66
2022/05/25 07:30:33;;;;;;;2.78;0.52;;;;;;;27.29;35.64;101279.69;5034354;28;20092;-66
2022/05/25 07:32:58;;;;;;;3.72;0.40;;;;;;;27.46;35.25;101283.56;5034091;28;20364;-65
2022/05/25 07:35:24;;;;;;;3.70;0.52;;;;;;;27.54;34.84;101275.00;5033905;28;20446;-66
2022/05/25 07:37:51;;;;;;;7.25;1.13;;;;;;;27.64;34.57;101269.78;5034020;28;20128;-66
2022/05/25 07:40:25;;;;;;;4.60;0.45;;;;;;;27.82;34.15;101283.53;5032594;28;20057;-66
2022/05/25 07:42:55;;;;;;;6.57;0.75;;;;;;;27.97;34.45;101272.97;5032737;28;20021;-66
2022/05/25 07:45:21;;;;;;;0.52;0.40;;;;;;;28.11;34.78;101279.97;5034251;28;20036;-66
2022/05/25 07:47:46;;;;;;;0.80;0.38;;;;;;;28.19;33.73;101279.69;5034285;28;20033;-66
2022/05/25 07:50:12;;;;;;;0.80;0.30;;;;;;;28.27;33.65;101282.09;5032637;28;20024;-65
2022/05/25 07:52:39;;;;;;;2.10;0.35;;;;;;;28.41;33.37;101282.75;5034085;28;20028;-66
2022/05/25 07:55:06;;;;;;;4.45;0.40;;;;;;;28.50;33.51;101292.38;5032925;28;20029;-65
2022/05/25 07:57:32;;;;;;;1.10;0.50;;;;;;;28.56;33.33;101279.56;5034218;28;20040;-66
2022/05/25 07:59:57;;;;;;;2.08;0.40;;;;;;;28.67;33.07;101287.03;5033870;28;20407;-65
2022/05/25 08:08:02;;;;;;;4.30;0.47;;;;;;;28.99;33.22;101293.91;5034132;28;20469;-65
2022/05/25 08:10:27;;;;;;;1.85;0.55;;;;;;;29.17;33.12;101301.25;5034184;28;20025;-65
2022/05/25 08:12:55;;;;;;;2.95;0.65;;;;;;;29.35;32.22;101301.13;5034293;28;20530;-65
2022/05/25 08:15:21;;;;;;;2.17;0.30;;;;;;;29.52;32.95;101295.72;5033982;28;20483;-66
2022/05/25 08:17:48;;;;;;;2.45;0.40;;;;;;;29.73;32.16;101308.91;5034302;28;20492;-65
2022/05/25 08:20:14;;;;;;;0.75;0.65;;;;;;;29.84;32.27;101299.78;5034043;28;20032;-66
2022/05/25 08:22:40;;;;;;;0.40;0.30;;;;;;;29.92;31.87;101307.69;5034244;28;20497;-66
2022/05/25 08:25:07;;;;;;;2.42;0.40;;;;;;;29.97;31.72;101303.09;5033864;28;20100;-66
2022/05/25 08:27:33;;;;;;;1.95;0.40;;;;;;;29.80;32.02;101298.59;5031565;28;20029;-66
2022/05/25 08:29:58;;;;;;;2.42;0.47;;;;;;;30.10;31.89;101301.97;5033509;28;20156;-66
2022/05/25 08:32:24;;;;;;;0.47;0.43;;;;;;;30.09;31.49;101303.06;5033290;28;20030;-65
2022/05/25 08:34:49;;;;;;;1.08;0.20;;;;;;;30.22;31.19;101296.38;5033530;28;20025;-65
2022/05/25 08:37:15;;;;;;;4.88;0.40;;;;;;;30.45;31.19;101294.41;5033346;28;20033;-65
2022/05/25 08:39:40;;;;;;;0.75;0.50;;;;;;;30.63;31.23;101306.31;5033231;28;20495;-66
2022/05/25 08:42:09;;;;;;;1.88;0.60;;;;;;;30.83;30.80;101299.19;5033206;28;20438;-66
2022/05/25 08:44:35;;;;;;;2.45;0.32;;;;;;;31.00;30.42;101299.22;5031988;28;20036;-65
2022/05/25 08:47:05;;;;;;;0.85;0.30;;;;;;;30.67;30.61;101294.50;5032190;28;20057;-66
2022/05/25 08:49:33;;;;;;;0.20;0.20;;;;;;;30.46;30.84;101286.91;5032369;28;20467;-66
2022/05/25 08:52:01;;;;;;;4.13;0.50;;;;;;;30.72;30.62;101285.44;5031861;28;20030;-66
2022/05/25 08:54:28;;;;;;;0.25;0.25;;;;;;;31.13;30.01;101282.25;5033011;28;20025;-66
2022/05/25 08:57:05;;;;;;;1.10;0.20;;;;;;;31.14;29.96;101286.72;5033183;28;20025;-66
2022/05/25 08:59:46;;;;;;;1.08;0.50;;;;;;;31.37;29.43;101289.28;5031981;28;20096;-66
2022/05/25 09:02:22;;;;;;;4.30;0.30;;;;;;;31.41;29.50;101284.91;5032106;28;20060;-66
2022/05/25 09:05:13;;;;;;;2.70;0.60;;;;;;;31.10;29.68;101286.38;5033146;28;20364;-66
2022/05/25 09:08:00;;;;;;;0.75;0.35;;;;;;;31.62;29.17;101289.66;5033317;28;20045;-66
2022/05/25 09:10:27;;;;;;;4.75;0.35;;;;;;;31.87;28.57;101285.53;5033638;28;20529;-65
2022/05/25 09:12:57;;;;;;;0.65;0.30;;;;;;;31.99;28.85;101280.69;5033392;28;20433;-66
2022/05/25 09:15:29;;;;;;;3.13;0.50;;;;;;;32.10;28.57;101276.97;5015279;28;20471;-66
2022/05/25 09:17:59;;;;;;;1.20;0.35;;;;;;;32.28;28.15;101277.44;5031770;28;20030;-66
2022/05/25 09:20:30;;;;;;;0.60;0.40;;;;;;;32.33;28.69;101281.38;5033116;28;20033;-65
2022/05/25 09:22:57;;;;;;;0.30;0.30;;;;;;;32.40;27.82;101293.94;5031796;28;20036;-66
2022/05/25 09:25:22;;;;;;;0.10;0.10;;;;;;;32.52;28.18;101275.19;5033239;28;20022;-68
2022/05/25 09:28:13;;;;;;;1.15;0.90;;;;;;;32.35;28.83;101285.56;5032148;28;20028;-66
2022/05/25 09:30:41;;;;;;;2.15;0.20;;;;;;;32.18;28.46;101287.59;5031527;28;20036;-66
2022/05/25 09:33:38;;;;;;;0.22;0.22;;;;;;;32.58;27.67;101284.44;5031602;28;20033;-66
2022/05/25 09:36:21;;;;;;;1.40;0.30;;;;;;;32.61;28.11;101287.50;5032232;28;20539;-66
2022/05/25 09:39:01;;;;;;;0.75;0.65;;;;;;;32.93;27.89;101286.66;5034040;28;20018;-67
2022/05/25 09:41:27;;;;;;;0.35;0.20;;;;;;;32.32;28.12;101302.75;5036509;28;20375;-66
2022/05/25 09:43:54;;;;;;;1.77;0.28;;;;;;;32.30;27.71;101296.63;5035197;28;20033;-67
2022/05/25 09:46:40;;;;;;;0.95;0.65;;;;;;;32.62;27.68;101291.97;5036457;28;20038;-66
2022/05/25 09:49:07;;;;;;;1.88;0.20;;;;;;;32.24;27.37;101294.88;5035304;28;20117;-66
2022/05/25 09:51:42;;;;;;;1.05;0.40;;;;;;;32.41;26.97;101290.06;5036630;28;20435;-66
2022/05/25 09:54:26;;;;;;;3.53;0.38;;;;;;;32.36;27.70;101292.78;5018810;28;20372;-66
2022/05/25 09:57:07;;;;;;;1.60;0.32;;;;;;;31.95;27.66;101302.56;5036114;28;20106;-66
2022/05/25 09:59:42;;;;;;;3.22;1.98;;;;;;;31.90;27.55;101302.50;5018276;28;20405;-67
2022/05/25 10:02:28;;;;;;;146.35;139.70;;;;;;;32.93;26.07;101297.78;5036273;28;20061;-66
2022/05/25 10:04:55;;;;;;;17.05;16.25;;;;;;;33.90;26.56;101307.31;5036063;28;20034;-66
2022/05/25 10:07:30;;;;;;;2.40;0.43;;;;;;;35.25;24.98;101288.34;5035248;28;20431;-66
2022/05/25 10:09:59;;;;;;;0.85;0.60;;;;;;;36.79;23.46;101286.22;5034752;28;20024;-66
2022/05/25 10:12:32;;;;;;;1.27;0.35;;;;;;;36.55;23.68;101285.28;5035902;28;20049;-66
2022/05/25 10:15:01;;;;;;;0.90;0.38;;;;;;;35.99;24.06;101287.53;5035953;28;20025;-66
2022/05/25 10:17:31;;;;;;;8.35;1.23;;;;;;;35.84;24.03;101287.63;5034526;28;20429;-66
2022/05/25 10:19:57;;;;;;;2.00;0.80;;;;;;;34.95;25.02;101297.53;5035757;28;20033;-67
2022/05/25 10:22:41;;;;;;;5.05;0.35;;;;;;;34.02;25.51;101292.34;5035763;28;20409;-66
2022/05/25 10:25:09;;;;;;;1.52;0.22;;;;;;;33.28;25.58;101292.50;5034504;28;20029;-67
2022/05/25 10:27:40;;;;;;;3.63;0.22;;;;;;;32.55;26.78;101291.31;5034344;28;20033;-66
2022/05/25 10:39:29;;;;;;;0.30;0.10;;;;;;;32.94;26.73;101305.00;5034651;28;20072;-66
2022/05/25 10:42:16;;;;;;;0.20;0.20;;;;;;;32.67;26.48;101305.88;5035583;28;20645;-66
2022/05/25 10:45:06;;;;;;;1.10;1.00;;;;;;;33.14;25.64;101316.31;5035363;28;20025;-67
2022/05/25 10:47:54;;;;;;;1.25;1.25;;;;;;;34.03;24.37;101294.88;5035400;28;20021;-66
2022/05/25 10:50:30;;;;;;;2.83;0.50;;;;;;;34.05;24.63;101294.56;5034829;28;20026;-67
2022/05/25 10:53:14;;;;;;;2.38;0.10;;;;;;;33.18;25.20;101306.31;5034248;28;20328;-66
2022/05/25 10:55:58;;;;;;;0.70;0.10;;;;;;;32.54;25.74;101300.78;5035227;28;20097;-67
2022/05/25 10:59:00;;;;;;;5.72;0.70;;;;;;;32.80;25.06;101304.63;5035275;28;20018;-66
2022/05/25 11:01:38;;;;;;;2.20;0.30;;;;;;;32.63;26.33;101295.59;5035367;28;20434;-66
2022/05/25 11:04:26;;;;;;;1.85;0.20;;;;;;;32.05;25.71;101301.88;5033619;28;20045;-66
2022/05/25 11:07:17;;;;;;;0.95;0.50;;;;;;;32.32;25.35;101307.44;5033682;28;20045;-66
2022/05/25 11:09:52;;;;;;;0.45;0.25;;;;;;;31.82;25.93;101297.41;5027513;28;20037;-66
2022/05/25 11:12:23;;;;;;;0.88;0.30;;;;;;;32.10;24.87;101296.38;5033785;28;20026;-66
2022/05/25 11:15:02;;;;;;;0.43;0.10;;;;;;;32.16;25.32;101303.69;5034684;28;20552;-66
2022/05/25 11:17:58;;;;;;;1.10;0.40;;;;;;;32.13;24.96;101296.69;5033308;28;20025;-66
2022/05/25 11:21:03;;;;;;;1.38;0.65;;;;;;;32.87;24.89;101287.72;5034548;28;20029;-66
2022/05/25 11:23:38;;;;;;;0.50;0.20;;;;;;;33.76;24.33;101297.81;5026506;28;20087;-66
2022/05/25 11:26:09;;;;;;;0.20;0.20;;;;;;;34.45;23.29;101278.03;5034786;28;20033;-67
2022/05/25 11:28:54;;;;;;;1.55;0.10;;;;;;;34.99;22.68;101281.94;5035026;28;20051;-67
2022/05/25 11:31:28;;;;;;;3.05;0.28;;;;;;;35.34;23.17;101286.66;5034763;28;20025;-66
2022/05/25 11:34:18;;;;;;;0.95;0.20;;;;;;;35.80;22.34;101283.72;5033728;28;20021;-66
2022/05/25 11:36:57;;;;;;;1.15;0.20;;;;;;;36.10;22.43;101284.44;5034734;28;20021;-67
2022/05/25 11:39:42;;;;;;;1.25;0.13;;;;;;;36.39;21.92;101280.91;5034527;28;20026;-65
2022/05/25 11:42:29;;;;;;;1.10;0.40;;;;;;;36.48;21.95;101279.19;5034881;28;20017;-67
2022/05/25 11:45:08;;;;;;;0.93;0.50;;;;;;;36.32;22.13;101280.41;5034878;28;20427;-67
2022/05/25 11:48:02;;;;;;;2.08;0.20;;;;;;;35.13;22.64;101273.03;5016923;28;20022;-67
2022/05/25 11:50:37;;;;;;;0.30;0.20;;;;;;;34.40;23.28;101286.34;5017485;28;20116;-66
2022/05/25 11:53:18;;;;;;;1.83;0.15;;;;;;;33.72;22.92;101285.56;5033557;28;20037;-66
2022/05/25 11:56:00;;;;;;;0.98;0.13;;;;;;;33.61;22.89;101280.22;5034608;28;20495;-66
2022/05/25 11:58:58;;;;;;;0.35;0.17;;;;;;;33.67;22.81;101277.19;5034235;28;20164;-66
2022/05/25 12:01:41;;;;;;;1.38;0.30;;;;;;;33.74;23.41;101274.16;5033482;28;20025;-66